createdAt,value
2022-07-31T00:01:04.565Z,100406.00
2022-07-31T00:03:33.184Z,100405.00
2022-07-31T00:06:02.020Z,100409.00
2022-07-31T00:08:30.583Z,100399.00
2022-07-31T00:10:59.225Z,100400.00
2022-07-31T00:13:56.361Z,100405.00
2022-07-31T00:16:17.936Z,100410.00
2022-07-31T00:18:46.555Z,100407.00
2022-07-31T00:21:15.093Z,100407.00
2022-07-31T00:23:43.601Z,100413.00
2022-07-31T00:26:12.113Z,100408.00
2022-07-31T00:28:40.677Z,100407.00
2022-07-31T00:31:09.200Z,100405.00
2022-07-31T00:33:39.077Z,100402.00
2022-07-31T00:36:08.060Z,100405.00
2022-07-31T00:38:36.714Z,100399.00
2022-07-31T00:41:05.712Z,100406.00
2022-07-31T00:43:34.329Z,100401.00
2022-07-31T00:46:03.110Z,100400.00
2022-07-31T00:48:31.773Z,100401.00
2022-07-31T00:51:03.372Z,100395.00
2022-07-31T00:53:31.906Z,100398.00
2022-07-31T00:56:00.461Z,100403.00
2022-07-31T00:58:29.004Z,100402.00
2022-07-31T01:00:57.608Z,100411.00
2022-07-31T01:03:26.232Z,100400.00
2022-07-31T01:05:54.754Z,100406.00
2022-07-31T01:08:30.659Z,100407.00
2022-07-31T01:11:05.637Z,100410.00
2022-07-31T01:13:48.601Z,100408.00
2022-07-31T01:16:26.422Z,100407.00
2022-07-31T01:18:57.941Z,100404.00
2022-07-31T01:21:37.098Z,100402.00
2022-07-31T01:24:32.481Z,100398.00
2022-07-31T01:27:05.694Z,100399.00
2022-07-31T01:29:51.556Z,100400.00
2022-07-31T01:32:28.288Z,100405.00
2022-07-31T01:35:03.361Z,100402.00
2022-07-31T01:37:35.774Z,100407.00
2022-07-31T01:40:15.565Z,100404.00
2022-07-31T01:42:47.755Z,100407.00
2022-07-31T01:45:22.526Z,100413.00
2022-07-31T01:47:52.941Z,100404.00
2022-07-31T01:50:43.730Z,100402.00
2022-07-31T01:53:27.184Z,100404.00
2022-07-31T01:56:03.833Z,100394.00
2022-07-31T01:58:44.319Z,100389.00
2022-07-31T02:01:18.373Z,100391.00
2022-07-31T02:03:56.268Z,100389.00
2022-07-31T02:06:27.595Z,100380.00
2022-07-31T02:08:58.027Z,100391.00
2022-07-31T02:11:26.752Z,100383.00
2022-07-31T02:13:56.585Z,100378.00
2022-07-31T02:16:27.687Z,100388.00
2022-07-31T02:18:58.535Z,100392.00
2022-07-31T02:21:27.550Z,100392.00
2022-07-31T02:23:57.198Z,100374.00
2022-07-31T02:26:28.839Z,100383.00
2022-07-31T02:28:58.272Z,100388.00
2022-07-31T02:31:30.610Z,100382.00
2022-07-31T02:33:59.658Z,100373.00
2022-07-31T02:36:29.822Z,100379.00
2022-07-31T02:38:59.422Z,100376.00
2022-07-31T02:41:28.933Z,100376.00
2022-07-31T02:43:58.609Z,100371.00
2022-07-31T02:46:29.520Z,100375.00
2022-07-31T02:48:59.208Z,100371.00
2022-07-31T02:51:29.043Z,100366.00
2022-07-31T02:54:09.960Z,100364.00
2022-07-31T02:56:39.450Z,100367.00
2022-07-31T02:59:08.159Z,100364.00
2022-07-31T03:01:38.787Z,100360.00
2022-07-31T03:04:07.477Z,100355.00
2022-07-31T03:06:36.328Z,100349.00
2022-07-31T03:09:04.991Z,100359.00
2022-07-31T03:11:33.920Z,100353.00
2022-07-31T03:14:04.610Z,100353.00
2022-07-31T03:16:34.226Z,100353.00
2022-07-31T03:19:06.277Z,100350.00
2022-07-31T03:21:35.806Z,100348.00
2022-07-31T03:24:04.928Z,100346.00
2022-07-31T03:26:33.982Z,100345.00
2022-07-31T03:29:02.875Z,100343.00
2022-07-31T03:31:31.511Z,100347.00
2022-07-31T03:34:00.162Z,100336.00
2022-07-31T03:36:32.059Z,100340.00
2022-07-31T03:39:00.643Z,100344.00
2022-07-31T03:41:29.205Z,100342.00
2022-07-31T03:43:57.761Z,100347.00
2022-07-31T03:46:28.108Z,100347.00
2022-07-31T03:48:57.183Z,100342.00
2022-07-31T03:51:26.037Z,100342.00
2022-07-31T03:54:00.146Z,100340.00
2022-07-31T03:56:30.334Z,100339.00
2022-07-31T03:59:02.923Z,100334.00
2022-07-31T04:01:57.512Z,100350.00
2022-07-31T04:04:36.656Z,100344.00
2022-07-31T04:07:13.437Z,100352.00
2022-07-31T04:09:51.905Z,100344.00
2022-07-31T04:12:28.157Z,100345.00
2022-07-31T04:15:05.488Z,100345.00
2022-07-31T04:17:46.370Z,100346.00
2022-07-31T04:20:25.382Z,100353.00
2022-07-31T04:22:56.122Z,100357.00
2022-07-31T04:25:38.502Z,100352.00
2022-07-31T04:28:13.276Z,100364.00
2022-07-31T04:30:57.300Z,100363.00
2022-07-31T04:33:35.995Z,100357.00
2022-07-31T04:36:29.524Z,100365.00
2022-07-31T04:39:12.176Z,100358.00
2022-07-31T04:41:56.215Z,100358.00
2022-07-31T04:44:35.670Z,100362.00
2022-07-31T04:47:13.562Z,100358.00
2022-07-31T04:49:50.793Z,100362.00
2022-07-31T04:52:24.917Z,100369.00
2022-07-31T04:54:58.999Z,100378.00
2022-07-31T04:57:37.488Z,100381.00
2022-07-31T05:00:19.463Z,100385.00
2022-07-31T05:02:48.219Z,100388.00
2022-07-31T05:05:26.345Z,100391.00
2022-07-31T05:07:57.157Z,100397.00
2022-07-31T05:10:43.447Z,100385.00
2022-07-31T05:13:13.368Z,100386.00
2022-07-31T05:15:44.738Z,100382.00
2022-07-31T05:18:13.553Z,100401.00
2022-07-31T05:20:42.183Z,100401.00
2022-07-31T05:23:10.923Z,100403.00
2022-07-31T05:25:40.469Z,100408.00
2022-07-31T05:28:09.832Z,100406.00
2022-07-31T05:30:40.061Z,100402.00
2022-07-31T05:33:08.708Z,100405.00
2022-07-31T05:35:40.813Z,100412.00
2022-07-31T05:38:12.104Z,100254.00
2022-07-31T05:40:40.861Z,100408.00
2022-07-31T05:43:10.926Z,100416.00
2022-07-31T05:45:40.984Z,100421.00
2022-07-31T05:48:09.700Z,100424.00
2022-07-31T05:50:38.246Z,100423.00
2022-07-31T05:53:06.947Z,100421.00
2022-07-31T05:55:35.510Z,100419.00
2022-07-31T05:58:04.041Z,100417.00
2022-07-31T06:00:32.619Z,100413.00
2022-07-31T06:03:03.079Z,100408.00
2022-07-31T06:05:32.109Z,100420.00
2022-07-31T06:08:01.512Z,100412.00
2022-07-31T06:10:30.377Z,100413.00
2022-07-31T06:12:59.022Z,100414.00
2022-07-31T06:15:27.735Z,100421.00
2022-07-31T06:17:56.246Z,100423.00
2022-07-31T06:20:26.313Z,100425.00
2022-07-31T06:22:55.147Z,100425.00
2022-07-31T06:25:23.685Z,100417.00
2022-07-31T06:27:59.176Z,100419.00
2022-07-31T06:30:28.691Z,100421.00
2022-07-31T06:32:57.269Z,100413.00
2022-07-31T06:35:27.450Z,100418.00
2022-07-31T06:37:55.987Z,100426.00
2022-07-31T06:40:24.701Z,100430.00
2022-07-31T06:42:53.431Z,100432.00
2022-07-31T06:45:41.902Z,100420.00
2022-07-31T06:48:15.516Z,100420.00
2022-07-31T06:50:45.631Z,100432.00
2022-07-31T06:53:14.248Z,100421.00
2022-07-31T06:58:26.641Z,100420.00
2022-07-31T07:00:55.202Z,100417.00
2022-07-31T07:03:23.972Z,100416.00
2022-07-31T07:05:56.270Z,100423.00
2022-07-31T07:08:25.173Z,100421.00
2022-07-31T07:10:53.722Z,100409.00
2022-07-31T07:13:23.590Z,100416.00
2022-07-31T07:15:52.318Z,100415.00
2022-07-31T07:18:22.094Z,100414.00
2022-07-31T07:20:52.885Z,100414.00
2022-07-31T07:23:23.611Z,100418.00
2022-07-31T07:25:52.330Z,100417.00
2022-07-31T07:28:30.624Z,100420.00
2022-07-31T07:30:59.793Z,100416.00
2022-07-31T07:33:40.481Z,100406.00
2022-07-31T07:36:23.728Z,100409.00
2022-07-31T07:38:56.041Z,100404.00
2022-07-31T07:41:25.561Z,100403.00
2022-07-31T07:43:54.325Z,100399.00
2022-07-31T07:46:23.561Z,100395.00
2022-07-31T07:48:52.956Z,100392.00
2022-07-31T07:51:22.427Z,100379.00
2022-07-31T07:53:51.220Z,100389.00
2022-07-31T07:56:21.121Z,100386.00
2022-07-31T07:58:50.092Z,100384.00
2022-07-31T08:01:19.764Z,100374.00
2022-07-31T08:03:52.084Z,100380.00
2022-07-31T08:06:22.627Z,100379.00
2022-07-31T08:08:51.241Z,100372.00
2022-07-31T08:11:21.602Z,100378.00
2022-07-31T08:13:51.325Z,100382.00
2022-07-31T08:16:20.950Z,100370.00
2022-07-31T08:18:50.114Z,100360.00
2022-07-31T08:21:18.642Z,100363.00
2022-07-31T08:23:47.412Z,100369.00
2022-07-31T08:26:17.337Z,100366.00
2022-07-31T08:28:49.813Z,100361.00
2022-07-31T08:31:19.850Z,100363.00
2022-07-31T08:33:48.542Z,100349.00
2022-07-31T08:36:17.147Z,100354.00
2022-07-31T08:38:45.683Z,100351.00
2022-07-31T08:41:15.643Z,100355.00
2022-07-31T08:44:02.436Z,100351.00
2022-07-31T08:46:34.674Z,100343.00
2022-07-31T08:49:04.521Z,100343.00
2022-07-31T08:51:50.757Z,100346.00
2022-07-31T08:54:21.198Z,100339.00
2022-07-31T08:56:52.570Z,100338.00
2022-07-31T08:59:22.104Z,100338.00
2022-07-31T09:01:53.125Z,100344.00
2022-07-31T09:04:21.637Z,100326.00
2022-07-31T09:06:50.206Z,100338.00
2022-07-31T09:09:19.338Z,100333.00
2022-07-31T09:11:49.130Z,100324.00
2022-07-31T09:14:28.498Z,100324.00
2022-07-31T09:16:59.173Z,100319.00
2022-07-31T09:19:51.873Z,100323.00
2022-07-31T09:22:24.073Z,100324.00
2022-07-31T09:24:53.177Z,100325.00
2022-07-31T09:27:28.811Z,100330.00
2022-07-31T09:29:58.418Z,100323.00
2022-07-31T09:32:28.357Z,100317.00
2022-07-31T09:35:07.131Z,100311.00
2022-07-31T09:37:35.816Z,100308.00
2022-07-31T09:40:05.196Z,100313.00
2022-07-31T09:42:55.204Z,100311.00
2022-07-31T09:45:25.720Z,100312.00
2022-07-31T09:48:15.214Z,100309.00
2022-07-31T09:50:55.235Z,100312.00
2022-07-31T09:53:24.061Z,100314.00
2022-07-31T09:55:54.044Z,100311.00
2022-07-31T09:58:23.162Z,100308.00
2022-07-31T10:00:53.501Z,100305.00
2022-07-31T10:03:27.155Z,100290.00
2022-07-31T10:05:56.376Z,100303.00
2022-07-31T10:08:29.018Z,100297.00
2022-07-31T10:10:57.566Z,100295.00
2022-07-31T10:13:26.394Z,100289.00
2022-07-31T10:15:58.752Z,100300.00
2022-07-31T10:18:35.851Z,100308.00
2022-07-31T10:21:07.543Z,100294.00
2022-07-31T10:23:40.322Z,100296.00
2022-07-31T10:26:09.058Z,100299.00
2022-07-31T10:28:39.199Z,100294.00
2022-07-31T10:31:08.495Z,100289.00
2022-07-31T10:33:44.187Z,100284.00
2022-07-31T10:36:19.505Z,100294.00
2022-07-31T10:38:52.860Z,100277.00
2022-07-31T10:41:33.341Z,100285.00
2022-07-31T10:44:06.596Z,100288.00
2022-07-31T10:46:35.836Z,100287.00
2022-07-31T10:49:08.292Z,100278.00
2022-07-31T10:51:48.460Z,100276.00
2022-07-31T10:54:17.104Z,100289.00
2022-07-31T10:56:47.711Z,100287.00
2022-07-31T10:59:16.277Z,100277.00
2022-07-31T11:01:53.101Z,100288.00
2022-07-31T11:04:30.577Z,100280.00
2022-07-31T11:06:59.746Z,100284.00
2022-07-31T11:09:30.270Z,100289.00
2022-07-31T11:11:58.775Z,100277.00
2022-07-31T11:14:34.333Z,100278.00
2022-07-31T11:17:04.509Z,100279.00
2022-07-31T11:19:41.591Z,100271.00
2022-07-31T11:22:31.328Z,100275.00
2022-07-31T11:25:06.719Z,100268.00
2022-07-31T11:27:35.572Z,100263.00
2022-07-31T11:30:13.049Z,100266.00
2022-07-31T11:32:42.146Z,100265.00
2022-07-31T11:35:11.992Z,100277.00
2022-07-31T11:37:56.925Z,100268.00
2022-07-31T11:40:27.926Z,100270.00
2022-07-31T11:43:25.264Z,100255.00
2022-07-31T11:45:51.303Z,100247.00
2022-07-31T11:48:21.286Z,100252.00
2022-07-31T11:50:54.436Z,100253.00
2022-07-31T11:53:24.696Z,100248.00
2022-07-31T11:55:54.962Z,100257.00
2022-07-31T11:58:24.563Z,100257.00
2022-07-31T12:00:54.461Z,100247.00
2022-07-31T12:03:24.469Z,100243.00
2022-07-31T12:05:58.601Z,100251.00
2022-07-31T12:08:30.667Z,100235.00
2022-07-31T12:11:00.989Z,100231.00
2022-07-31T12:13:30.523Z,100227.00
2022-07-31T12:16:04.216Z,100223.00
2022-07-31T12:18:46.791Z,100228.00
2022-07-31T12:21:17.433Z,100225.00
2022-07-31T12:23:47.682Z,100232.00
2022-07-31T12:26:26.140Z,100220.00
2022-07-31T12:29:01.803Z,100236.00
2022-07-31T12:31:32.438Z,100220.00
2022-07-31T12:34:01.070Z,100208.00
2022-07-31T12:36:32.249Z,100222.00
2022-07-31T12:39:02.348Z,100216.00
2022-07-31T12:41:31.456Z,100224.00
2022-07-31T12:44:11.013Z,100222.00
2022-07-31T12:46:42.140Z,100220.00
2022-07-31T12:49:10.883Z,100219.00
2022-07-31T12:51:46.200Z,100219.00
2022-07-31T12:54:16.581Z,100211.00
2022-07-31T12:56:46.628Z,100213.00
2022-07-31T12:59:15.735Z,100199.00
2022-07-31T13:01:44.315Z,100209.00
2022-07-31T13:04:18.710Z,100207.00
2022-07-31T13:06:51.547Z,100200.00
2022-07-31T13:09:21.122Z,100199.00
2022-07-31T13:11:53.218Z,100183.00
2022-07-31T13:14:24.780Z,100198.00
2022-07-31T13:16:55.091Z,100182.00
2022-07-31T13:19:23.857Z,100174.00
2022-07-31T13:21:56.720Z,100177.00
2022-07-31T13:24:25.789Z,100171.00
2022-07-31T13:26:54.377Z,100176.00
2022-07-31T13:29:23.019Z,100170.00
2022-07-31T13:31:51.753Z,100169.00
2022-07-31T13:34:20.795Z,100173.00
2022-07-31T13:36:49.377Z,100170.00
2022-07-31T13:39:19.336Z,100170.00
2022-07-31T13:41:47.866Z,100165.00
2022-07-31T13:44:16.977Z,100171.00
2022-07-31T13:46:45.540Z,100161.00
2022-07-31T13:49:14.193Z,100147.00
2022-07-31T13:51:42.840Z,100150.00
2022-07-31T13:54:11.372Z,100144.00
2022-07-31T13:56:43.694Z,100146.00
2022-07-31T13:59:13.507Z,100140.00
2022-07-31T14:02:04.652Z,100145.00
2022-07-31T14:04:32.503Z,100147.00
2022-07-31T14:07:03.426Z,100139.00
2022-07-31T14:09:35.933Z,100145.00
2022-07-31T14:12:06.510Z,100150.00
2022-07-31T14:14:35.676Z,100142.00
2022-07-31T14:17:04.658Z,100144.00
2022-07-31T14:19:40.489Z,100146.00
2022-07-31T14:22:14.223Z,100139.00
2022-07-31T14:24:45.617Z,100139.00
2022-07-31T14:27:21.692Z,100141.00
2022-07-31T14:29:50.457Z,100135.00
2022-07-31T14:32:19.708Z,100130.00
2022-07-31T14:34:48.634Z,100133.00
2022-07-31T14:37:17.299Z,100127.00
2022-07-31T14:39:46.050Z,100137.00
2022-07-31T14:42:14.714Z,100143.00
2022-07-31T14:44:45.566Z,100133.00
2022-07-31T14:47:14.496Z,100131.00
2022-07-31T14:50:07.613Z,100137.00
2022-07-31T14:52:32.294Z,100137.00
2022-07-31T14:55:01.760Z,100130.00
2022-07-31T14:57:31.554Z,100136.00
2022-07-31T15:00:01.568Z,100124.00
2022-07-31T15:02:30.138Z,100124.00
2022-07-31T15:04:58.601Z,100120.00
2022-07-31T15:07:48.151Z,100121.00
2022-07-31T15:10:16.912Z,100114.00
2022-07-31T15:12:45.418Z,100117.00
2022-07-31T15:15:15.341Z,100124.00
2022-07-31T15:17:43.846Z,100125.00
2022-07-31T15:20:13.338Z,100122.00
2022-07-31T15:22:41.900Z,100120.00
2022-07-31T15:25:11.191Z,100117.00
2022-07-31T15:27:39.705Z,100122.00
2022-07-31T15:30:09.197Z,100119.00
2022-07-31T15:32:40.110Z,100115.00
2022-07-31T15:35:10.551Z,100110.00
2022-07-31T15:37:40.512Z,100122.00
2022-07-31T15:40:11.365Z,100120.00
2022-07-31T15:42:41.738Z,100121.00
2022-07-31T15:45:12.218Z,100127.00
2022-07-31T15:47:43.171Z,100122.00
2022-07-31T15:50:13.948Z,100117.00
2022-07-31T15:52:43.202Z,100114.00
2022-07-31T15:55:12.609Z,100117.00
2022-07-31T15:57:41.265Z,100116.00
2022-07-31T16:00:12.201Z,100108.00
2022-07-31T16:02:43.249Z,100109.00
2022-07-31T16:05:21.774Z,100100.00
2022-07-31T16:08:30.275Z,100101.00
2022-07-31T16:10:54.713Z,100102.00
2022-07-31T16:13:23.964Z,100094.00
2022-07-31T16:15:52.541Z,100094.00
2022-07-31T16:18:22.640Z,100086.00
2022-07-31T16:20:51.236Z,100089.00
2022-07-31T16:23:19.773Z,100093.00
2022-07-31T16:25:48.503Z,100088.00
2022-07-31T16:28:17.144Z,100085.00
2022-07-31T16:30:46.689Z,100090.00
2022-07-31T16:33:15.648Z,100084.00
2022-07-31T16:35:45.565Z,100081.00
2022-07-31T16:38:14.141Z,100082.00
2022-07-31T16:40:42.934Z,100083.00
2022-07-31T16:43:49.201Z,100084.00
2022-07-31T16:46:00.005Z,100087.00
2022-07-31T16:48:28.514Z,100080.00
2022-07-31T16:50:58.367Z,100082.00
2022-07-31T16:54:11.311Z,100065.00
2022-07-31T16:56:18.900Z,100074.00
2022-07-31T16:58:51.331Z,100075.00
2022-07-31T17:01:56.719Z,100069.00
2022-07-31T17:04:13.761Z,100063.00
2022-07-31T17:06:43.629Z,100069.00
2022-07-31T17:09:16.531Z,100066.00
2022-07-31T17:11:48.150Z,100069.00
2022-07-31T17:14:17.242Z,100066.00
2022-07-31T17:16:48.297Z,100060.00
2022-07-31T17:19:40.991Z,100069.00
2022-07-31T17:22:11.018Z,100068.00
2022-07-31T17:24:40.569Z,100066.00
2022-07-31T17:27:10.364Z,100068.00
2022-07-31T17:29:39.500Z,100062.00
2022-07-31T17:32:08.381Z,100060.00
2022-07-31T17:34:40.208Z,100066.00
2022-07-31T17:37:10.396Z,100058.00
2022-07-31T17:39:39.151Z,100067.00
2022-07-31T17:42:09.366Z,100075.00
2022-07-31T17:44:38.176Z,100067.00
2022-07-31T17:47:09.872Z,100063.00
2022-07-31T17:49:38.817Z,100065.00
2022-07-31T17:52:09.940Z,100057.00
2022-07-31T17:54:38.642Z,100057.00
2022-07-31T17:57:07.727Z,100061.00
2022-07-31T17:59:36.616Z,100069.00
2022-07-31T18:02:07.435Z,100073.00
2022-07-31T18:04:38.065Z,100076.00
2022-07-31T18:07:09.080Z,100069.00
2022-07-31T18:09:37.731Z,100070.00
2022-07-31T18:12:08.932Z,100075.00
2022-07-31T18:14:39.771Z,100083.00
2022-07-31T18:17:08.525Z,100081.00
2022-07-31T18:19:37.188Z,100078.00
2022-07-31T18:22:06.091Z,100083.00
2022-07-31T18:24:36.284Z,100079.00
2022-07-31T18:27:05.034Z,100075.00
2022-07-31T18:29:33.554Z,100076.00
2022-07-31T18:32:02.292Z,100077.00
2022-07-31T18:34:31.107Z,100082.00
2022-07-31T18:36:59.626Z,100082.00
2022-07-31T18:39:28.176Z,100079.00
2022-07-31T18:41:58.112Z,100078.00
2022-07-31T18:44:26.637Z,100081.00
2022-07-31T18:46:56.150Z,100080.00
2022-07-31T18:50:59.861Z,100075.00
2022-07-31T18:52:13.130Z,100080.00
2022-07-31T18:54:42.662Z,100079.00
2022-07-31T18:57:12.662Z,100081.00
2022-07-31T18:59:41.142Z,100083.00
2022-07-31T19:02:11.538Z,100080.00
2022-07-31T19:04:40.768Z,100087.00
2022-07-31T19:07:10.146Z,100087.00
2022-07-31T19:09:47.395Z,100096.00
2022-07-31T19:12:38.175Z,100088.00
2022-07-31T19:15:14.098Z,100086.00
2022-07-31T19:17:58.651Z,100090.00
2022-07-31T19:20:55.734Z,100092.00
2022-07-31T19:23:50.577Z,100097.00
2022-07-31T19:26:27.079Z,100101.00
2022-07-31T19:29:16.896Z,100098.00
2022-07-31T19:31:48.457Z,100098.00
2022-07-31T19:34:25.546Z,100106.00
2022-07-31T19:36:58.739Z,100102.00
2022-07-31T19:39:38.407Z,100105.00
2022-07-31T19:42:15.101Z,100106.00
2022-07-31T19:44:51.753Z,100102.00
2022-07-31T19:47:30.013Z,100090.00
2022-07-31T19:49:58.711Z,100103.00
2022-07-31T19:52:27.269Z,100096.00
2022-07-31T19:54:56.010Z,100094.00
2022-07-31T19:57:24.540Z,100096.00
2022-07-31T19:59:54.649Z,100098.00
2022-07-31T20:02:23.568Z,100091.00
2022-07-31T20:04:53.400Z,100094.00
2022-07-31T20:07:22.436Z,100091.00
2022-07-31T20:09:52.915Z,100087.00
2022-07-31T20:12:23.302Z,100089.00
2022-07-31T20:14:53.517Z,100087.00
2022-07-31T20:17:22.283Z,100084.00
2022-07-31T20:20:02.953Z,100079.00
2022-07-31T20:22:39.768Z,100094.00
2022-07-31T20:25:20.182Z,100087.00
2022-07-31T20:27:49.907Z,100083.00
2022-07-31T20:30:22.241Z,100085.00
2022-07-31T20:32:53.862Z,100091.00
2022-07-31T20:35:31.083Z,100093.00
2022-07-31T20:38:15.925Z,100091.00
2022-07-31T20:40:49.939Z,100091.00
2022-07-31T20:43:23.600Z,100095.00
2022-07-31T20:45:54.665Z,100086.00
2022-07-31T20:48:24.704Z,100083.00
2022-07-31T20:50:57.353Z,100087.00
2022-07-31T20:53:26.108Z,100082.00
2022-07-31T20:55:54.711Z,100075.00
2022-07-31T20:58:24.698Z,100078.00
2022-07-31T21:00:56.247Z,100082.00
2022-07-31T21:03:25.052Z,100076.00
2022-07-31T21:05:54.268Z,100076.00
2022-07-31T21:08:23.469Z,100077.00
2022-07-31T21:10:52.287Z,100069.00
2022-07-31T21:13:21.715Z,100062.00
2022-07-31T21:15:51.580Z,100065.00
2022-07-31T21:18:22.619Z,100070.00
2022-07-31T21:20:53.797Z,100064.00
2022-07-31T21:23:25.820Z,100066.00
2022-07-31T21:25:57.381Z,100067.00
2022-07-31T21:28:29.162Z,100067.00
2022-07-31T21:30:58.310Z,100073.00
2022-07-31T21:33:31.297Z,100069.00
2022-07-31T21:36:01.427Z,100069.00
2022-07-31T21:38:30.867Z,100066.00
2022-07-31T21:41:34.501Z,100069.00
2022-07-31T21:44:06.426Z,100061.00
2022-07-31T21:46:42.045Z,100068.00
2022-07-31T21:49:20.411Z,100073.00
2022-07-31T21:51:49.704Z,100083.00
2022-07-31T21:54:19.594Z,100089.00
2022-07-31T21:56:48.582Z,100083.00
2022-07-31T21:59:17.256Z,100084.00
2022-07-31T22:01:57.496Z,100082.00
2022-07-31T22:04:34.522Z,100091.00
2022-07-31T22:07:21.508Z,100091.00
2022-07-31T22:09:50.258Z,100091.00
2022-07-31T22:12:26.516Z,100096.00
2022-07-31T22:18:33.077Z,100089.00
2022-07-31T22:21:52.788Z,100102.00
2022-07-31T22:24:38.293Z,100094.00
2022-07-31T22:27:38.682Z,100091.00
2022-07-31T22:30:22.803Z,100097.00
2022-07-31T22:36:17.217Z,100100.00
2022-07-31T22:38:53.025Z,100095.00
2022-07-31T22:41:39.257Z,100095.00
2022-07-31T22:44:39.803Z,100085.00
2022-07-31T22:48:13.170Z,100079.00
2022-07-31T22:50:28.472Z,100088.00
2022-07-31T22:53:20.540Z,100081.00
2022-07-31T22:56:07.526Z,100081.00
2022-07-31T22:59:10.649Z,100082.00
2022-07-31T23:01:52.725Z,100078.00
2022-07-31T23:04:38.952Z,100080.00
2022-07-31T23:07:53.417Z,100073.00
2022-07-31T23:10:30.749Z,100069.00
2022-07-31T23:17:00.275Z,100068.00
2022-07-31T23:22:47.525Z,100064.00
2022-07-31T23:25:20.933Z,100061.00
2022-07-31T23:28:01.362Z,100059.00
2022-07-31T23:31:17.835Z,100057.00
2022-07-31T23:34:17.861Z,100054.00
2022-07-31T23:37:05.805Z,100057.00
2022-07-31T23:39:59.286Z,100060.00
2022-07-31T23:42:55.249Z,100065.00
2022-07-31T23:45:33.302Z,100050.00
2022-07-31T23:48:15.404Z,100052.00
2022-07-31T23:51:01.220Z,100054.00
2022-07-31T23:53:51.310Z,100042.00
